createdAt,value
2018-07-06T07:02:48.399Z,45.6
2018-07-06T07:04:53.882Z,45
2018-07-06T07:08:17.830Z,45.1
2018-07-06T07:12:45.267Z,44.7
2018-07-06T07:14:59.364Z,44.6
2018-07-06T07:18:04.037Z,44.4
2018-07-06T07:20:16.136Z,44.2
2018-07-06T07:22:27.535Z,44.5
2018-07-06T07:24:37.496Z,44.5
2018-07-06T07:26:41.937Z,44.2
2018-07-06T07:28:52.895Z,44.2
2018-07-06T07:31:06.299Z,44.2
2018-07-06T07:33:13.499Z,44.3
2018-07-06T07:35:26.099Z,44.5
2018-07-06T07:37:33.264Z,44
2018-07-06T07:39:40.273Z,44
2018-07-06T07:41:46.842Z,43.6
2018-07-06T07:43:54.855Z,44.3
2018-07-06T07:46:00.876Z,43.9
2018-07-06T07:48:08.524Z,43.6
2018-07-06T07:50:12.613Z,44
2018-07-06T07:52:16.492Z,44.1
2018-07-06T07:55:01.869Z,44.1
2018-07-06T07:57:34.054Z,44.2
2018-07-06T07:59:51.209Z,43.8
2018-07-06T08:02:11.679Z,44
2018-07-06T08:04:18.852Z,43.4
2018-07-06T08:06:23.059Z,43.6
2018-07-06T08:08:27.387Z,43.7
2018-07-06T08:10:38.468Z,43.2
2018-07-06T08:12:46.586Z,43.1
2018-07-06T08:14:57.456Z,43.2
2018-07-06T08:17:04.865Z,43.1
2018-07-06T08:19:18.311Z,43.5
2018-07-06T08:21:31.942Z,43.5
2018-07-06T08:23:40.168Z,43.5
2018-07-06T08:25:45.506Z,43.8
2018-07-06T08:27:49.248Z,43.6
2018-07-06T08:29:57.216Z,43.7
2018-07-06T08:32:12.937Z,44.1
2018-07-06T08:34:52.448Z,43.3
2018-07-06T08:37:02.691Z,43.2
2018-07-06T08:39:12.289Z,43.2
2018-07-06T08:42:06.562Z,42.6
2018-07-06T08:44:22.598Z,42.4
2018-07-06T08:46:30.895Z,42
2018-07-06T08:48:35.855Z,42.2
2018-07-06T08:50:50.891Z,42.5
2018-07-06T08:53:00.736Z,42.2
2018-07-06T08:55:12.178Z,42.2
2018-07-06T08:57:53.700Z,42.3
2018-07-06T09:00:14.395Z,42.8
2018-07-06T09:02:36.018Z,42.5
2018-07-06T09:04:39.998Z,42.2
2018-07-06T09:06:50.204Z,42.2
2018-07-06T09:08:59.761Z,42.1
2018-07-06T09:11:16.674Z,41.8
2018-07-06T09:13:28.224Z,41.9
2018-07-06T09:15:50.332Z,41.8
2018-07-06T09:18:31.388Z,42
2018-07-06T09:20:39.644Z,41.9
2018-07-06T09:22:47.447Z,42.1
2018-07-06T09:24:52.125Z,41.9
2018-07-06T09:26:58.753Z,42.2
2018-07-06T09:29:02.474Z,42.1
2018-07-06T09:31:06.310Z,41.8
2018-07-06T09:33:13.509Z,42
2018-07-06T09:35:23.482Z,42
2018-07-06T09:37:28.521Z,41.9
2018-07-06T09:39:36.264Z,42.2
2018-07-06T09:41:40.651Z,42.2
2018-07-06T09:43:50.716Z,42.1
2018-07-06T09:45:55.223Z,42.4
2018-07-06T09:48:03.108Z,42
2018-07-06T09:50:07.330Z,42.3
2018-07-06T09:52:17.236Z,42.3
2018-07-06T09:54:20.902Z,42.4
2018-07-06T09:56:27.067Z,42.4
2018-07-06T09:58:30.894Z,42.4
2018-07-06T10:00:34.633Z,42.3
2018-07-06T10:02:38.624Z,42.3
2018-07-06T10:04:42.624Z,42.2
2018-07-06T10:06:46.145Z,43.8
2018-07-06T10:08:49.996Z,42.4
2018-07-06T10:10:53.883Z,42.8
2018-07-06T10:12:58.004Z,42.7
2018-07-06T10:15:06.904Z,42.7
2018-07-06T10:17:23.921Z,42.4
2018-07-06T10:19:27.942Z,42.9
2018-07-06T10:21:31.915Z,42.5
2018-07-06T10:23:35.892Z,42.9
2018-07-06T10:25:39.827Z,42.8
2018-07-06T10:27:43.985Z,42.5
2018-07-06T10:29:47.488Z,42.4
2018-07-06T10:31:51.070Z,43.1
2018-07-06T10:33:54.848Z,42.8
2018-07-06T10:35:58.703Z,43.1
2018-07-06T10:38:02.472Z,43.3
2018-07-06T10:40:06.236Z,43.2
2018-07-06T10:42:09.919Z,42.9
2018-07-06T10:44:13.569Z,42.8
2018-07-06T10:46:17.223Z,42.7
2018-07-06T10:48:20.870Z,42.9
2018-07-06T10:50:24.411Z,43
2018-07-06T10:52:27.939Z,43.1
2018-07-06T10:54:31.454Z,43.1
2018-07-06T10:56:39.255Z,43.3
2018-07-06T10:58:07.292Z,43.4
2018-07-06T10:58:39.726Z,43.2
2018-07-06T11:48:08.412Z,45.2
2018-07-06T11:50:13.256Z,45
2018-07-06T11:52:23.511Z,44.6
2018-07-06T11:54:27.604Z,44.5
2018-07-06T11:56:31.816Z,44.4
2018-07-06T11:58:37.098Z,44.1
2018-07-06T12:00:43.881Z,43.9
2018-07-06T12:03:00.244Z,43.9
2018-07-06T12:05:04.759Z,43.7
2018-07-06T13:29:55.634Z,43.3
2018-07-06T13:32:02.316Z,42.5
2018-07-06T13:34:09.914Z,42.4
2018-07-06T15:03:54.413Z,43.2
2018-07-06T15:05:35.669Z,43
2018-07-06T15:07:40.963Z,42.9
2018-07-06T15:09:19.595Z,42.7
2018-07-06T15:12:07.377Z,42.8
2018-07-06T15:14:14.808Z,42.9
2018-07-06T15:19:35.041Z,43.3
2018-07-06T15:33:24.330Z,43.3
2018-07-06T15:35:30.123Z,43.1
2018-07-06T15:37:35.193Z,43.3
2018-07-06T15:39:38.861Z,43.7
2018-07-06T15:41:42.684Z,44
2018-07-06T15:43:46.864Z,44.1
2018-07-06T15:45:28.255Z,44.2
2018-07-06T15:47:31.992Z,44.1
2018-07-06T15:49:35.728Z,44
2018-07-06T15:51:39.566Z,44
2018-07-06T15:53:43.272Z,43.9
2018-07-06T15:55:47.409Z,43.8
2018-07-06T15:57:51.505Z,43.7
2018-07-06T15:59:55.289Z,43.7
2018-07-06T16:01:59.195Z,43.9
2018-07-06T16:04:02.816Z,43.3
2018-07-06T16:06:06.449Z,43.2
2018-07-06T16:08:10.085Z,43.1
2018-07-06T16:10:13.647Z,43.5
2018-07-06T16:12:17.595Z,43.1
2018-07-06T16:14:21.407Z,43.5
2018-07-06T16:16:25.210Z,43.5
2018-07-06T16:18:28.915Z,42.8
2018-07-06T16:20:32.701Z,42.6
2018-07-06T16:22:36.326Z,41.9
2018-07-06T16:24:40.058Z,42.4
2018-07-06T16:26:43.658Z,42.6
2018-07-06T16:28:47.310Z,42.2
2018-07-06T16:30:51.155Z,45
2018-07-06T16:32:54.741Z,42.5
2018-07-06T16:34:58.628Z,43.1
2018-07-06T16:37:02.194Z,42.1
2018-07-06T16:39:05.776Z,42.1
2018-07-06T16:41:12.163Z,41.7
2018-07-06T16:43:15.751Z,41.9
2018-07-06T16:45:19.428Z,42.1
2018-07-06T16:47:23.233Z,42.3
2018-07-06T18:59:07.204Z,49.6
2018-07-06T18:59:59.320Z,52
2018-07-06T19:02:02.245Z,49.8
2018-07-06T19:04:05.156Z,49.7
2018-07-06T19:06:08.070Z,49.8
2018-07-06T19:08:10.985Z,49.8
2018-07-06T19:10:13.901Z,49.6
2018-07-06T19:12:16.813Z,49.4
2018-07-06T19:14:19.771Z,49.2
2018-07-06T19:16:22.728Z,49
2018-07-06T19:18:25.637Z,48.9
2018-07-06T19:20:28.549Z,48.6
2018-07-06T19:22:31.468Z,48.6
2018-07-06T19:24:34.381Z,48.7
2018-07-06T19:26:37.296Z,48.5
2018-07-06T19:28:40.218Z,48.4
2018-07-06T19:30:43.142Z,48.3
2018-07-06T19:32:46.056Z,48
2018-07-06T19:34:48.970Z,48
2018-07-06T19:36:51.915Z,47.8
2018-07-06T19:38:54.831Z,47.9
2018-07-06T19:40:57.745Z,47.8
2018-07-06T19:43:00.660Z,47.9
2018-07-06T19:45:03.603Z,47.4
2018-07-06T19:47:06.516Z,47.9
2018-07-06T19:49:09.464Z,47.8
2018-07-06T19:51:12.418Z,47.7
2018-07-06T19:53:15.341Z,47.6
2018-07-06T19:55:18.353Z,47.5
2018-07-06T19:57:22.467Z,47.6
2018-07-06T19:59:25.381Z,47.8
2018-07-06T20:01:28.356Z,48
2018-07-06T20:03:31.247Z,48.1
2018-07-06T20:05:34.164Z,47.9
2018-07-06T20:07:37.077Z,47.8
2018-07-06T20:09:39.998Z,47.7
2018-07-06T20:11:42.912Z,47.8
2018-07-06T20:13:45.864Z,47.9
2018-07-06T20:15:48.819Z,47.9
2018-07-06T20:17:57.339Z,47.5
2018-07-06T20:20:00.201Z,47.5
2018-07-06T20:22:03.116Z,47.6
2018-07-06T20:24:06.028Z,47.9
2018-07-06T20:26:08.944Z,47.7
2018-07-06T20:28:11.873Z,47.6
2018-07-06T20:30:14.791Z,47.3
2018-07-06T20:32:17.706Z,47.4
2018-07-06T20:34:20.624Z,47.4
2018-07-06T20:36:23.537Z,47.5
2018-07-06T20:38:26.451Z,47.7
2018-07-06T20:40:29.368Z,47.6
2018-07-06T20:42:32.283Z,47.6
2018-07-06T20:44:35.199Z,47.3
2018-07-06T20:46:38.156Z,47.2
2018-07-06T20:48:41.081Z,46.9
2018-07-06T20:50:43.991Z,46.8
2018-07-06T20:52:46.956Z,47.4
2018-07-06T20:54:49.873Z,47.5
2018-07-06T20:56:52.829Z,47.3
2018-07-06T20:58:55.784Z,47.7
2018-07-06T21:00:58.699Z,47.8
2018-07-06T21:03:01.629Z,47.8
2018-07-06T21:05:04.656Z,47.7
2018-07-06T21:07:07.577Z,47.7
2018-07-06T21:09:10.545Z,47.8
2018-07-06T21:11:13.458Z,47.9
2018-07-06T21:13:16.416Z,47.8
2018-07-06T21:15:19.328Z,47.7
2018-07-06T21:17:22.244Z,47.7
2018-07-06T21:19:25.157Z,47.7
2018-07-06T21:21:28.078Z,47.1
2018-07-06T21:23:31.047Z,46.9
2018-07-06T21:25:33.962Z,47.8
2018-07-06T21:27:36.875Z,48
2018-07-06T21:29:39.788Z,48.7
2018-07-06T21:31:42.786Z,48.4
2018-07-06T21:33:45.703Z,47.3
2018-07-06T21:35:48.718Z,46.2
2018-07-06T21:37:51.789Z,46.5
2018-07-06T21:39:55.639Z,46.1
2018-07-06T21:41:58.550Z,45.9
2018-07-06T21:44:01.471Z,46.2
2018-07-06T21:46:04.381Z,46.7
2018-07-06T21:48:07.350Z,45.9
2018-07-06T21:50:10.266Z,46
2018-07-06T21:52:13.179Z,47.6
2018-07-06T21:54:16.099Z,46.3
2018-07-06T21:56:19.007Z,47.4
2018-07-06T21:58:21.967Z,46.9
2018-07-06T22:00:24.878Z,45.7
2018-07-06T22:02:27.794Z,46.9
2018-07-06T22:03:43.494Z,45.5
2018-07-06T22:05:46.866Z,45.5
2018-07-06T22:07:38.624Z,45.6
2018-07-06T22:09:41.953Z,45.7
2018-07-06T22:11:45.283Z,45.2
2018-07-06T22:13:51.771Z,45.1
2018-07-06T22:15:55.101Z,45.2
2018-07-06T22:17:58.431Z,45.1
2018-07-06T22:20:01.781Z,44.6
2018-07-06T22:22:05.216Z,44.3
2018-07-06T22:24:08.553Z,44.3
2018-07-06T22:26:11.902Z,44.3
2018-07-06T22:28:15.234Z,44.5
2018-07-06T22:30:18.562Z,44.5
2018-07-06T22:32:21.999Z,44.9
2018-07-06T22:34:25.405Z,44.9
2018-07-06T22:36:28.719Z,44.4
2018-07-06T22:38:32.085Z,44.2
2018-07-06T22:40:35.736Z,44.4
2018-07-06T22:42:39.080Z,44.4
2018-07-06T22:44:42.412Z,45.1
2018-07-06T22:46:45.750Z,45.2
2018-07-06T22:48:49.093Z,45.5
2018-07-06T22:50:52.423Z,45.6
2018-07-06T22:52:55.753Z,45.7
2018-07-06T22:54:59.083Z,45.9
2018-07-06T22:57:02.432Z,45.9
2018-07-06T22:59:05.761Z,45.7
2018-07-06T23:01:09.090Z,45.6
2018-07-06T23:03:12.427Z,45.4
2018-07-06T23:05:15.991Z,45.2
2018-07-06T23:07:19.930Z,45.6
2018-07-06T23:09:23.260Z,45.2
2018-07-06T23:11:26.593Z,45
2018-07-06T23:13:29.986Z,45.2
2018-07-06T23:15:33.351Z,45.2
2018-07-06T23:17:36.683Z,45.4
2018-07-06T23:19:40.010Z,45.3
2018-07-06T23:21:43.344Z,45.2
2018-07-06T23:23:46.673Z,45.4
2018-07-06T23:25:50.002Z,44.2
2018-07-06T23:27:53.331Z,44.2
2018-07-06T23:29:56.662Z,44.3
2018-07-06T23:32:00.014Z,44.1
2018-07-06T23:34:03.341Z,44.2
2018-07-06T23:36:06.670Z,44.1
2018-07-06T23:38:10.132Z,44.3
2018-07-06T23:40:13.456Z,44.4
2018-07-06T23:42:16.786Z,44.5
2018-07-06T23:44:20.153Z,44.6
2018-07-06T23:46:23.484Z,45.7
2018-07-06T23:48:26.813Z,44.6
2018-07-06T23:50:30.168Z,44.8
2018-07-06T23:52:33.498Z,45
2018-07-06T23:54:37.030Z,44.8
2018-07-06T23:56:40.662Z,44.8
2018-07-06T23:58:43.987Z,44.8
